Latest Weather Observations for Noarlunga

IDS60801

Issued at 9:05 pm CST Thursday 18 September 2014 (issued every 30 minutes, with the page automatically refreshed every 10 minutes)

About weather observations | Map of weather stations | Latest weather observations for SA | Other Formats
Station Details ID: 023885 Name: NOARLUNGA Lat: -35.16 Lon: 138.51 Height: 55.0 m
Data from the previous 72 hours. | See also: Recent months at Noarlunga
Date/Time
CST
Temp
°C
App
Temp
°C
Dew
Point
Rel
Hum
%
Delta-T
°C
Wind Press
QNH
hPa
Press
MSL
hPa
Rain
since 9 am
mm
Dir
 
Spd
km/h
Gust
km/h
Spd
kts
Gust
kts
18/09:00pm 9.1 5.9 5.3 77 1.7 E 11 15 6 8 - - 1.4
18/08:30pm 9.3 7.0 5.5 77 1.7 ESE 7 13 4 7 - - 1.4
18/08:00pm 9.6 6.6 5.8 77 1.7 ESE 11 13 6 7 - - 1.4
18/07:30pm 9.3 6.6 5.7 78 1.6 ESE 9 13 5 7 - - 1.4
18/07:00pm 9.9 7.2 5.7 75 1.9 ESE 9 13 5 7 - - 1.4
18/06:30pm 10.1 8.1 7.0 81 1.5 ESE 7 11 4 6 - - 1.4
18/06:00pm 10.9 9.0 7.4 79 1.7 SSE 7 9 4 5 - - 1.4
18/05:30pm 11.3 9.4 7.6 78 1.8 S 7 11 4 6 - - 1.4
18/05:00pm 12.0 10.3 7.7 75 2.1 SSW 6 11 3 6 - - 1.4
18/04:30pm 11.5 9.9 8.0 79 1.7 S 6 9 3 5 - - 1.4
18/04:00pm 11.3 9.0 7.6 78 1.8 S 9 13 5 7 - - 1.4
18/03:30pm 11.7 9.3 7.0 73 2.3 SSW 9 11 5 6 - - 1.2
18/03:00pm 12.3 8.1 5.5 63 3.2 S 17 26 9 14 - - 1.2
18/02:30pm 13.6 11.9 6.0 60 3.6 ENE 4 6 2 3 - - 1.2
18/02:00pm 12.7 10.9 7.0 68 2.8 NW 6 7 3 4 - - 1.2
18/01:30pm 12.6 10.6 7.3 70 2.6 SW 7 15 4 8 - - 1.2
18/01:00pm 12.6 11.5 8.3 75 2.1 WSW 4 7 2 4 - - 1.2
18/12:30pm 10.9 9.7 8.0 82 1.4 S 4 6 2 3 - - 1.2
18/12:00pm 10.6 8.5 8.4 86 1.1 SE 9 13 5 7 - - 0.8
18/11:30am 12.8 10.5 5.5 61 3.4 SW 7 13 4 7 - - 0.0
18/11:00am 13.1 11.0 6.0 62 3.4 WNW 6 7 3 4 - - 0.0
18/10:30am 12.2 10.1 5.8 65 3.0 NNW 6 7 3 4 - - 0.0
18/10:00am 11.1 9.8 5.8 70 2.5 E 2 7 1 4 - - 0.0
18/09:30am 10.8 8.9 6.9 77 1.9 E 6 7 3 4 - - 0.0
18/09:00am 10.1 7.6 6.6 79 1.6 SE 9 13 5 7 - - 0.0
18/08:30am 11.3 9.6 5.8 69 2.6 ESE 4 4 2 2 - - 0.0
18/08:00am 10.6 8.8 5.4 70 2.4 E 4 6 2 3 - - 0.0
18/07:30am 9.6 7.4 5.4 75 1.9 E 6 7 3 4 - - 0.0
18/07:00am 8.4 6.4 4.6 77 1.7 ESE 4 6 2 3 - - 0.0
18/06:30am 7.8 6.1 4.0 77 1.6 ENE 2 4 1 2 - - 0.0
18/06:00am 8.0 6.0 4.2 77 1.7 ENE 4 7 2 4 - - 0.0
18/05:30am 8.1 5.7 4.1 76 1.7 NE 6 7 3 4 - - 0.0
18/05:00am 7.4 4.9 3.5 76 1.7 E 6 13 3 7 - - 0.0
18/04:30am 7.9 5.7 3.6 74 1.8 ENE 4 6 2 3 - - 0.0
18/04:00am 7.8 6.3 3.1 72 2.0 CALM 0 0 0 0 - - 0.0
18/03:30am 8.2 6.7 3.1 70 2.2 CALM 0 0 0 0 - - 0.0
18/03:00am 8.5 5.9 3.1 69 2.3 E 6 9 3 5 - - 0.0
18/02:30am 8.6 5.8 3.4 70 2.2 ESE 7 9 4 5 - - 0.0
18/02:00am 8.6 6.0 3.0 68 2.4 NE 6 9 3 5 - - 0.0
18/01:30am 8.7 6.0 2.5 65 2.6 NE 6 7 3 4 - - 0.0
18/01:00am 8.7 5.9 2.3 64 2.7 ENE 6 7 3 4 - - 0.0
18/12:30am 8.4 6.1 2.6 67 2.4 ENE 4 4 2 2 - - 0.0
18/12:00am 7.9 5.9 2.4 68 2.3 E 2 4 1 2 - - 0.0
 
Date/Time
CST
Temp
°C
App
Temp
°C
Dew
Point
Rel
Hum
%
Delta-T
°C
Wind Press
QNH
hPa
Press
MSL
hPa
Rain
since 9 am
mm
Dir
 
Spd
km/h
Gust
km/h
Spd
kts
Gust
kts
17/11:30pm 7.3 4.9 2.4 71 2.0 NE 4 6 2 3 - - 0.0
17/11:00pm 7.1 4.6 1.6 68 2.2 N 4 6 2 3 - - 0.0
17/10:30pm 7.3 4.8 1.8 68 2.2 E 4 6 2 3 - - 0.0
17/10:00pm 7.2 4.7 1.7 68 2.2 ESE 4 6 2 3 - - 0.0
17/09:30pm 7.7 5.6 1.8 66 2.4 E 2 4 1 2 - - 0.0
17/09:00pm 8.0 5.6 2.0 66 2.5 E 4 7 2 4 - - 0.0
17/08:30pm 8.5 5.7 2.1 64 2.7 ESE 6 7 3 4 - - 0.0
17/08:00pm 8.9 5.9 2.3 63 2.8 SE 7 9 4 5 - - 0.0
17/07:30pm 9.1 5.8 2.4 63 2.8 SSE 9 11 5 6 - - 0.0
17/07:00pm 10.3 6.3 2.9 60 3.2 S 13 17 7 9 - - 0.0
17/06:30pm 11.0 7.0 2.8 57 3.6 S 13 17 7 9 - - 0.0
17/06:00pm 12.3 9.0 2.5 51 4.3 S 9 15 5 8 - - 0.0
17/05:30pm 13.7 10.2 3.5 50 4.6 SW 11 19 6 10 - - 0.0
17/05:00pm 14.3 10.0 3.5 48 4.9 SW 15 22 8 12 - - 0.0
17/04:30pm 14.6 9.6 3.4 47 5.1 SW 19 24 10 13 - - 0.0
17/04:00pm 15.2 10.3 4.3 48 5.1 SW 19 26 10 14 - - 0.0
17/03:30pm 15.7 11.0 5.0 49 5.1 SW 19 30 10 16 - - 0.0
17/03:00pm 15.9 11.6 3.4 43 5.7 SW 15 24 8 13 - - 0.0
17/02:30pm 15.7 10.8 4.1 46 5.4 WSW 19 28 10 15 - - 0.0
17/02:00pm 15.9 10.4 1.6 38 6.3 SW 20 26 11 14 - - 0.0
17/01:30pm 16.4 11.7 5.1 47 5.4 SSW 19 32 10 17 - - 0.0
17/01:00pm 15.8 11.0 5.4 50 5.0 SW 20 33 11 18 - - 0.0
17/12:30pm 15.2 9.4 4.3 48 5.1 WSW 24 33 13 18 - - 0.0
17/12:00pm 15.5 10.9 5.7 52 4.7 WSW 19 30 10 16 - - 0.0
17/11:30am 15.1 11.3 7.4 60 3.8 WSW 17 26 9 14 - - 0.0
17/11:00am 15.2 11.6 8.2 63 3.5 WSW 17 26 9 14 - - 0.0
17/10:30am 14.1 10.7 7.6 65 3.2 WSW 15 24 8 13 - - 0.0
17/10:00am 13.9 10.6 6.3 60 3.6 WSW 13 22 7 12 - - 0.0
17/09:30am 13.5 10.5 7.9 69 2.8 SW 13 19 7 10 - - 0.0
17/09:00am 12.8 10.6 7.9 72 2.4 SSW 9 17 5 9 - - 0.2
17/08:30am 11.8 9.8 8.5 80 1.6 SW 9 15 5 8 - - 0.2
17/08:00am 12.7 11.5 8.2 74 2.2 WSW 4 7 2 4 - - 0.0
17/07:30am 12.2 11.4 8.3 77 1.9 SE 2 4 1 2 - - 0.0
17/07:00am 10.5 9.3 7.9 84 1.3 SE 4 4 2 2 - - 0.0
17/06:30am 9.3 7.8 6.7 84 1.2 SE 4 4 2 2 - - 0.0
17/06:00am 9.4 8.3 6.8 84 1.2 S 2 4 1 2 - - 0.0
17/05:30am 9.7 8.2 6.8 82 1.4 S 4 4 2 2 - - 0.0
17/05:00am 10.8 9.0 7.3 79 1.7 S 6 9 3 5 - - 0.0
17/04:30am 11.8 9.8 7.3 74 2.2 SW 7 15 4 8 - - 0.0
17/04:00am 12.0 8.5 7.1 72 2.4 SW 15 22 8 12 - - 0.0
17/03:30am 12.3 8.7 6.8 69 2.6 SW 15 24 8 13 - - 0.0
17/03:00am 12.3 8.7 6.8 69 2.6 SW 15 26 8 14 - - 0.0
17/02:30am 12.1 8.8 6.4 68 2.7 WSW 13 20 7 11 - - 0.0
17/02:00am 11.9 8.6 6.6 70 2.5 SW 13 22 7 12 - - 0.0
17/01:30am 11.8 8.9 6.5 70 2.5 SW 11 19 6 10 - - 0.0
17/01:00am 12.6 8.4 5.5 62 3.3 WSW 17 26 9 14 - - 0.0
17/12:30am 12.4 9.2 5.1 61 3.4 WSW 11 17 6 9 - - 0.0
17/12:00am 12.4 9.1 4.6 59 3.6 W 11 17 6 9 - - 0.0
 
Date/Time
CST
Temp
°C
App
Temp
°C
Dew
Point
Rel
Hum
%
Delta-T
°C
Wind Press
QNH
hPa
Press
MSL
hPa
Rain
since 9 am
mm
Dir
 
Spd
km/h
Gust
km/h
Spd
kts
Gust
kts
16/11:30pm 12.3 8.9 3.8 56 3.8 WSW 11 17 6 9 - - 0.0
16/11:00pm 12.5 8.1 4.7 59 3.6 WSW 17 28 9 15 - - 0.0
16/10:30pm 12.6 8.3 5.1 60 3.5 WSW 17 28 9 15 - - 0.0
16/10:00pm 12.6 7.7 4.1 56 3.9 WSW 19 28 10 15 - - 0.0
16/09:30pm 12.6 8.2 4.6 58 3.7 WSW 17 24 9 13 - - 0.0
16/09:00pm 12.6 8.3 5.1 60 3.5 WSW 17 30 9 16 - - 0.0
16/08:30pm 12.5 9.0 7.0 69 2.7 SW 15 26 8 14 - - 0.0
16/08:00pm 12.7 8.9 7.4 70 2.6 SW 17 26 9 14 - - 0.0
16/07:30pm 12.8 8.4 6.6 66 3.0 W 19 28 10 15 - - 0.0
16/07:00pm 12.9 8.3 6.3 64 3.1 W 20 33 11 18 - - 0.0
16/06:30pm 13.3 8.7 6.6 64 3.2 W 20 35 11 19 - - 0.0
16/06:00pm 13.7 9.7 6.6 62 3.4 W 17 30 9 16 - - 0.0
16/05:30pm 13.8 11.7 8.4 70 2.7 W 9 15 5 8 - - 0.0
16/05:00pm 14.6 12.2 8.8 68 2.9 W 11 19 6 10 - - 0.0
16/04:30pm 14.9 12.5 8.8 67 3.1 W 11 20 6 11 - - 0.0
16/04:00pm 14.7 11.7 9.1 69 2.9 W 15 20 8 11 - - 0.0
16/03:30pm 15.2 12.2 9.3 68 3.0 W 15 22 8 12 - - 0.0
16/03:00pm 15.2 12.0 8.4 64 3.4 W 15 26 8 14 - - 0.0
16/02:30pm 16.0 12.5 7.2 56 4.4 W 15 24 8 13 - - 0.0
16/02:00pm 15.2 10.7 6.2 55 4.4 W 19 26 10 14 - - 0.0
16/01:30pm 15.4 11.9 7.2 58 4.1 W 15 24 8 13 - - 0.0
16/01:00pm 15.3 12.0 9.4 68 3.0 W 17 28 9 15 - - 0.0
16/12:30pm 15.3 12.5 10.1 71 2.7 WNW 15 22 8 12 - - 0.0
16/12:00pm 16.0 13.4 9.2 64 3.5 WNW 13 19 7 10 - - 0.0
16/11:30am 15.4 12.2 8.6 64 3.5 WNW 15 22 8 12 - - 0.0
16/11:00am 15.1 12.2 8.1 63 3.5 W 13 20 7 11 - - 0.0
16/10:30am 15.7 12.9 10.0 69 3.0 W 15 20 8 11 - - 0.0
16/10:00am 14.5 11.1 9.1 70 2.8 WSW 17 24 9 13 - - 0.0
16/09:30am 14.4 11.4 9.2 71 2.7 WSW 15 20 8 11 - - 0.0
16/09:00am 13.9 11.3 9.3 74 2.4 W 13 20 7 11 - - 1.6
16/08:30am 13.7 11.6 9.9 78 2.0 WSW 11 17 6 9 - - 1.6
16/08:00am 13.2 10.3 9.8 80 1.7 WSW 15 22 8 12 - - 1.6
16/07:30am 13.0 10.9 9.8 81 1.6 WSW 11 19 6 10 - - 1.6
16/07:00am 12.1 9.9 9.3 83 1.4 WSW 11 20 6 11 - - 1.6
16/06:30am 12.0 9.8 9.4 84 1.3 WSW 11 15 6 8 - - 1.6
16/06:00am 12.1 9.9 9.5 84 1.3 WSW 11 20 6 11 - - 1.6
16/05:30am 12.1 10.0 9.7 85 1.2 SW 11 17 6 9 - - 1.6
16/05:00am 11.7 10.0 9.8 88 1.0 SW 9 15 5 8 - - 1.6
16/04:30am 11.3 9.9 9.6 89 0.9 WSW 7 13 4 7 - - 1.6
16/04:00am 10.7 9.7 9.0 89 0.8 S 4 4 2 2 - - 1.6
16/03:30am 11.1 9.8 9.2 88 1.0 SSW 6 9 3 5 - - 1.4
16/03:00am 11.6 9.8 9.5 87 1.1 SW 9 15 5 8 - - 1.0
16/02:30am 11.2 10.6 9.1 87 1.0 S 2 6 1 3 - - 1.0
16/02:00am 10.4 9.2 8.2 86 1.1 S 4 6 2 3 - - 0.4
16/01:30am 10.7 9.6 8.3 85 1.2 SSW 4 7 2 4 - - 0.4
16/01:00am 10.8 9.7 8.4 85 1.2 SSW 4 6 2 3 - - 0.4
16/12:30am 11.0 9.5 8.6 85 1.2 SW 6 9 3 5 - - 0.4
16/12:00am 11.0 9.9 8.4 84 1.3 S 4 6 2 3 - - 0.4
 
Date/Time
CST
Temp
°C
App
Temp
°C
Dew
Point
Rel
Hum
%
Delta-T
°C
Wind Press
QNH
hPa
Press
MSL
hPa
Rain
since 9 am
mm
Dir
 
Spd
km/h
Gust
km/h
Spd
kts
Gust
kts
15/11:30pm 11.3 10.3 8.7 84 1.3 SW 4 6 2 3 - - 0.4
15/11:00pm 11.0 9.8 8.2 83 1.4 S 4 6 2 3 - - 0.4
15/10:30pm 11.9 10.3 8.9 82 1.5 SSW 7 11 4 6 - - 0.4
15/10:00pm 11.8 10.4 9.0 83 1.4 SSW 6 7 3 4 - - 0.4
15/09:30pm 12.2 10.6 8.9 80 1.7 SSW 7 11 4 6 - - 0.4

Other Formats:

Comma delimited format used in spreadsheet applications
http://www.bom.gov.au/fwo/IDS60801/IDS60801.94808.axf

JavaScript Object Notation format (JSON) in row-major order
http://www.bom.gov.au/fwo/IDS60801/IDS60801.94808.json